createdAt,value
2022-11-12T00:01:05.963Z,98062.81
2022-11-12T00:03:32.759Z,98074.66
2022-11-12T00:05:59.558Z,98066.13
2022-11-12T00:08:26.632Z,98064.09
2022-11-12T00:10:53.591Z,98064.97
2022-11-12T00:13:20.392Z,98061.84
2022-11-12T00:15:47.780Z,98064.78
2022-11-12T00:18:14.730Z,98073.19
2022-11-12T00:20:41.553Z,98079.63
2022-11-12T00:23:08.573Z,98069.66
2022-11-12T00:25:35.520Z,98077.59
2022-11-12T00:28:11.077Z,98081.16
2022-11-12T00:30:40.418Z,98081.91
2022-11-12T00:33:08.141Z,98074.78
2022-11-12T00:35:35.330Z,98073.44
2022-11-12T00:38:02.160Z,98067.91
2022-11-12T00:40:29.510Z,98063.28
2022-11-12T00:42:56.388Z,98051.16
2022-11-12T00:45:23.842Z,98063.72
2022-11-12T00:47:54.512Z,98059.13
2022-11-12T00:50:21.468Z,98071.00
2022-11-12T00:52:48.499Z,98068.22
2022-11-12T00:55:15.395Z,98064.63
2022-11-12T00:57:42.183Z,98059.97
2022-11-12T01:00:15.329Z,98055.56
2022-11-12T01:02:46.407Z,98052.75
2022-11-12T01:05:16.576Z,98036.56
2022-11-12T01:07:43.488Z,98040.13
2022-11-12T01:10:11.821Z,98050.09
2022-11-12T01:12:38.791Z,98047.34
2022-11-12T01:15:07.361Z,98048.16
2022-11-12T01:17:34.381Z,98042.94
2022-11-12T01:20:01.321Z,98043.66
2022-11-12T01:22:28.171Z,98042.38
2022-11-12T01:24:55.014Z,98040.41
2022-11-12T01:27:21.787Z,98045.25
2022-11-12T01:29:48.559Z,98039.91
2022-11-12T01:32:15.396Z,98042.94
2022-11-12T01:34:42.201Z,98030.53
2022-11-12T01:37:08.970Z,98035.19
2022-11-12T01:39:35.754Z,98014.31
2022-11-12T01:42:02.624Z,98027.44
2022-11-12T01:44:31.978Z,98020.47
2022-11-12T01:47:15.095Z,98017.50
2022-11-12T01:49:55.131Z,98023.47
2022-11-12T01:52:31.900Z,98009.47
2022-11-12T01:55:05.996Z,98013.84
2022-11-12T01:57:39.553Z,98007.56
2022-11-12T02:00:11.258Z,98008.69
2022-11-12T02:02:39.165Z,98007.75
2022-11-12T02:05:10.700Z,98002.28
2022-11-12T02:07:41.220Z,98005.84
2022-11-12T02:10:09.869Z,98000.84
2022-11-12T02:12:55.349Z,98010.34
2022-11-12T02:15:22.238Z,98008.00
2022-11-12T02:17:49.304Z,98001.72
2022-11-12T02:20:16.140Z,98013.31
2022-11-12T02:22:42.999Z,98000.03
2022-11-12T02:25:15.824Z,98002.59
2022-11-12T02:27:44.179Z,98012.28
2022-11-12T02:30:12.237Z,98007.06
2022-11-12T02:32:39.024Z,98000.22
2022-11-12T02:35:06.510Z,97998.63
2022-11-12T02:37:33.275Z,98002.72
2022-11-12T02:40:00.072Z,97993.13
2022-11-12T02:42:26.945Z,97989.56
2022-11-12T02:44:53.891Z,97995.06
2022-11-12T02:47:20.704Z,97991.22
2022-11-12T02:49:47.476Z,98001.03
2022-11-12T02:52:14.286Z,97998.88
2022-11-12T02:54:41.056Z,98002.06
2022-11-12T02:57:07.845Z,98003.22
2022-11-12T02:59:34.647Z,98014.53
2022-11-12T03:02:01.477Z,98011.81
2022-11-12T03:04:31.337Z,98015.69
2022-11-12T03:06:58.198Z,98021.19
2022-11-12T03:09:25.041Z,98015.97
2022-11-12T03:11:51.847Z,98022.84
2022-11-12T03:14:18.635Z,98018.00
2022-11-12T03:16:45.414Z,98021.38
2022-11-12T03:19:12.204Z,98014.88
2022-11-12T03:21:38.973Z,98011.19
2022-11-12T03:24:06.021Z,98015.56
2022-11-12T03:26:35.773Z,98004.63
2022-11-12T03:29:03.632Z,98005.44
2022-11-12T03:31:30.432Z,98007.38
2022-11-12T03:33:57.237Z,97999.78
2022-11-12T03:36:24.008Z,97998.50
2022-11-12T03:38:50.804Z,98002.41
2022-11-12T03:41:17.581Z,98004.81
2022-11-12T03:43:44.347Z,98007.81
2022-11-12T03:46:11.167Z,98003.94
2022-11-12T03:48:37.988Z,98014.53
2022-11-12T03:51:05.149Z,98014.94
2022-11-12T03:53:31.947Z,98018.13
2022-11-12T03:55:58.748Z,98020.03
2022-11-12T03:58:25.915Z,98008.44
2022-11-12T04:00:53.065Z,98007.22
2022-11-12T04:03:19.851Z,98018.06
2022-11-12T04:06:05.276Z,98010.31
2022-11-12T04:08:37.944Z,98019.00
2022-11-12T04:11:15.225Z,98006.66
2022-11-12T04:13:47.340Z,98006.28
2022-11-12T04:16:40.212Z,98014.56
2022-11-12T04:19:29.557Z,98025.50
2022-11-12T04:22:08.082Z,98025.22
2022-11-12T04:24:58.203Z,98017.53
2022-11-12T04:27:27.723Z,98020.22
2022-11-12T04:30:13.652Z,98013.78
2022-11-12T04:32:51.047Z,98019.25
2022-11-12T04:35:19.149Z,98025.00
2022-11-12T04:37:46.372Z,98026.88
2022-11-12T04:40:58.088Z,98011.94
2022-11-12T04:43:43.493Z,98005.28
2022-11-12T04:46:10.370Z,98018.44
2022-11-12T04:48:37.122Z,98012.81
2022-11-12T04:51:28.682Z,98019.91
2022-11-12T04:53:55.451Z,98015.41
2022-11-12T04:56:22.260Z,98022.66
2022-11-12T04:58:49.052Z,98031.53
2022-11-12T05:01:15.884Z,98044.69
2022-11-12T05:03:42.753Z,98030.22
2022-11-12T05:06:30.245Z,98026.88
2022-11-12T05:08:57.084Z,98029.78
2022-11-12T05:11:23.877Z,98028.47
2022-11-12T05:13:50.650Z,98038.28
2022-11-12T05:16:17.540Z,98025.22
2022-11-12T05:18:44.309Z,98028.81
2022-11-12T05:21:29.820Z,98023.00
2022-11-12T05:23:56.579Z,98017.91
2022-11-12T05:26:23.405Z,98021.66
2022-11-12T05:28:50.237Z,98010.16
2022-11-12T05:31:17.019Z,98016.22
2022-11-12T05:33:43.799Z,98013.09
2022-11-12T05:36:10.564Z,98017.09
2022-11-12T05:38:39.060Z,98021.66
2022-11-12T05:41:05.923Z,98017.47
2022-11-12T05:43:32.741Z,98017.06
2022-11-12T05:45:59.586Z,98015.50
2022-11-12T05:48:26.765Z,98015.13
2022-11-12T05:53:42.916Z,98030.94
2022-11-12T05:56:11.305Z,98025.09
2022-11-12T05:58:38.596Z,98031.88
2022-11-12T06:01:05.930Z,98029.09
2022-11-12T06:03:32.697Z,98042.94
2022-11-12T06:05:59.481Z,98041.25
2022-11-12T06:08:26.599Z,98045.53
2022-11-12T06:10:54.943Z,98047.19
2022-11-12T06:13:23.865Z,98047.53
2022-11-12T06:15:52.317Z,98049.75
2022-11-12T06:18:19.181Z,98045.44
2022-11-12T06:21:06.072Z,98051.41
2022-11-12T06:23:33.473Z,98047.09
2022-11-12T06:26:01.400Z,98050.09
2022-11-12T06:28:28.984Z,98052.56
2022-11-12T06:30:56.278Z,98053.97
2022-11-12T06:33:23.472Z,98055.53
2022-11-12T06:35:58.258Z,98053.16
2022-11-12T06:38:25.344Z,98053.25
2022-11-12T06:40:52.351Z,98058.78
2022-11-12T06:43:19.206Z,98057.53
2022-11-12T06:45:45.976Z,98051.81
2022-11-12T06:48:12.757Z,98052.03
2022-11-12T06:50:39.583Z,98052.66
2022-11-12T06:53:06.404Z,98056.63
2022-11-12T06:55:33.224Z,98062.06
2022-11-12T06:58:00.035Z,98055.03
2022-11-12T07:00:26.843Z,98057.75
2022-11-12T07:02:53.696Z,98055.09
2022-11-12T07:05:20.535Z,98067.00
2022-11-12T07:07:47.345Z,98064.19
2022-11-12T07:10:14.128Z,98062.50
2022-11-12T07:12:40.917Z,98065.56
2022-11-12T07:15:08.061Z,98065.72
2022-11-12T07:17:34.873Z,98063.91
2022-11-12T07:20:03.850Z,98069.72
2022-11-12T07:22:34.338Z,98073.97
2022-11-12T07:25:01.121Z,98069.94
2022-11-12T07:27:31.121Z,98078.66
2022-11-12T07:29:57.926Z,98075.38
2022-11-12T07:32:24.739Z,98079.50
2022-11-12T07:34:51.602Z,98073.75
2022-11-12T07:37:18.397Z,98069.66
2022-11-12T07:39:45.247Z,98078.72
2022-11-12T07:42:12.064Z,98073.06
2022-11-12T07:44:38.913Z,98073.53
2022-11-12T07:47:05.670Z,98063.50
2022-11-12T07:49:32.504Z,98068.13
2022-11-12T07:51:59.315Z,98061.41
2022-11-12T07:54:26.108Z,98064.56
2022-11-12T07:56:52.986Z,98063.91
2022-11-12T07:59:19.766Z,98059.78
2022-11-12T08:01:46.641Z,98059.00
2022-11-12T08:04:14.084Z,98050.84
2022-11-12T08:06:41.106Z,98058.88
2022-11-12T08:09:08.815Z,98052.88
2022-11-12T08:11:36.060Z,98058.72
2022-11-12T08:14:03.558Z,98058.41
2022-11-12T08:16:30.438Z,98054.63
2022-11-12T08:18:57.243Z,98067.41
2022-11-12T08:21:24.407Z,98059.25
2022-11-12T08:23:51.304Z,98072.09
2022-11-12T08:26:20.189Z,98069.06
2022-11-12T08:28:47.028Z,98077.75
2022-11-12T08:31:19.802Z,98074.09
2022-11-12T08:33:46.956Z,98078.03
2022-11-12T08:36:16.499Z,98085.53
2022-11-12T08:38:43.920Z,98091.56
2022-11-12T08:41:14.651Z,98097.25
2022-11-12T08:43:42.413Z,98090.09
2022-11-12T08:46:09.331Z,98092.88
2022-11-12T08:48:39.905Z,98095.00
2022-11-12T08:51:07.983Z,98093.38
2022-11-12T08:53:35.073Z,98082.03
2022-11-12T08:56:02.132Z,98089.31
2022-11-12T08:58:29.341Z,98082.88
2022-11-12T09:00:57.767Z,98083.47
2022-11-12T09:03:26.104Z,98074.91
2022-11-12T09:05:53.779Z,98084.22
2022-11-12T09:08:24.172Z,98084.41
2022-11-12T09:10:52.092Z,98083.19
2022-11-12T09:13:19.799Z,98087.66
2022-11-12T09:15:47.123Z,98091.84
2022-11-12T09:18:17.343Z,98090.78
2022-11-12T09:20:44.717Z,98085.03
2022-11-12T09:23:14.708Z,98099.03
2022-11-12T09:25:42.522Z,98101.38
2022-11-12T09:28:17.697Z,98098.88
2022-11-12T09:30:50.059Z,98102.19
2022-11-12T09:33:27.423Z,98103.44
2022-11-12T09:35:55.150Z,98098.81
2022-11-12T09:38:22.654Z,98111.91
2022-11-12T09:40:52.080Z,98116.41
2022-11-12T09:43:33.674Z,98100.94
2022-11-12T09:46:28.502Z,98103.16
2022-11-12T09:49:19.924Z,98109.22
2022-11-12T09:52:00.024Z,98106.50
2022-11-12T09:54:30.775Z,98104.47
2022-11-12T09:57:01.383Z,98095.78
2022-11-12T09:59:34.831Z,98094.97
2022-11-12T10:02:29.403Z,98105.66
2022-11-12T10:05:14.976Z,98093.41
2022-11-12T10:08:05.844Z,98089.66
2022-11-12T10:11:19.355Z,98099.31
2022-11-12T10:14:23.946Z,98080.91
2022-11-12T10:17:19.475Z,98080.47
2022-11-12T10:20:14.016Z,98079.22
2022-11-12T10:23:14.225Z,98070.41
2022-11-12T10:25:44.839Z,98075.03
2022-11-12T10:28:31.005Z,98070.06
2022-11-12T10:31:13.470Z,98070.28
2022-11-12T10:33:40.272Z,98062.94
2022-11-12T10:36:26.654Z,98058.25
2022-11-12T10:38:55.247Z,98058.03
2022-11-12T10:41:33.277Z,98049.19
2022-11-12T10:44:03.989Z,98049.25
2022-11-12T10:46:35.477Z,98052.69
2022-11-12T10:49:04.833Z,98049.59
2022-11-12T10:51:36.943Z,98042.31
2022-11-12T10:54:37.578Z,98043.78
2022-11-12T10:57:26.357Z,98039.22
2022-11-12T11:00:19.295Z,98042.53
2022-11-12T11:02:52.455Z,98036.47
2022-11-12T11:05:38.747Z,98039.75
2022-11-12T11:08:06.187Z,98038.47
2022-11-12T11:10:36.063Z,98032.09
2022-11-12T11:13:25.196Z,98030.72
2022-11-12T11:16:05.159Z,98021.06
2022-11-12T11:18:36.098Z,98021.66
2022-11-12T11:21:24.471Z,98013.91
2022-11-12T11:24:21.470Z,98020.88
2022-11-12T11:27:04.632Z,98021.63
2022-11-12T11:30:12.514Z,98018.63
2022-11-12T11:32:54.971Z,98018.34
2022-11-12T11:35:48.329Z,98027.09
2022-11-12T11:38:53.529Z,98024.28
2022-11-12T11:41:50.587Z,98019.94
2022-11-12T11:44:40.048Z,98017.88
2022-11-12T11:47:30.430Z,98017.00
2022-11-12T11:50:13.243Z,98016.41
2022-11-12T11:53:16.156Z,98008.66
2022-11-12T11:56:31.353Z,98002.34
2022-11-12T11:59:27.837Z,98009.88
2022-11-12T12:01:57.556Z,98011.97
2022-11-12T12:04:30.039Z,98003.22
2022-11-12T12:07:37.271Z,98012.66
2022-11-12T12:10:16.036Z,98008.84
2022-11-12T12:12:42.714Z,98006.78
2022-11-12T12:15:42.749Z,97991.53
2022-11-12T12:18:52.188Z,97989.69
2022-11-12T12:21:22.014Z,97987.72
2022-11-12T12:23:51.172Z,97986.38
2022-11-12T12:26:27.863Z,97985.41
2022-11-12T12:29:01.842Z,97982.91
2022-11-12T12:31:36.931Z,97973.31
2022-11-12T12:34:16.077Z,97980.75
2022-11-12T12:36:43.995Z,97977.53
2022-11-12T12:39:26.734Z,97977.66
2022-11-12T12:42:08.787Z,97973.28
2022-11-12T12:45:03.079Z,97977.19
2022-11-12T12:47:36.579Z,97974.25
2022-11-12T12:50:10.767Z,97967.88
2022-11-12T12:53:17.174Z,97957.44
2022-11-12T12:55:58.104Z,97944.69
2022-11-12T12:58:31.814Z,97946.88
2022-11-12T13:01:31.535Z,97943.13
2022-11-12T13:04:08.948Z,97943.06
2022-11-12T13:06:40.086Z,97929.38
2022-11-12T13:09:12.985Z,97924.59
2022-11-12T13:12:00.837Z,97921.75
2022-11-12T13:14:36.534Z,97927.72
2022-11-12T13:17:15.016Z,97924.19
2022-11-12T13:20:10.670Z,97926.84
2022-11-12T13:22:40.333Z,97924.19
2022-11-12T13:25:13.322Z,97928.06
2022-11-12T13:27:40.132Z,97920.31
2022-11-12T13:30:29.944Z,97918.06
2022-11-12T13:32:59.021Z,97916.72
2022-11-12T13:35:37.905Z,97916.19
2022-11-12T13:38:12.161Z,97908.22
2022-11-12T13:40:47.108Z,97913.06
2022-11-12T13:43:42.701Z,97918.72
2022-11-12T13:46:29.983Z,97908.41
2022-11-12T13:49:12.285Z,97910.03
2022-11-12T13:51:51.903Z,97903.66
2022-11-12T13:54:36.200Z,97904.75
2022-11-12T13:57:23.965Z,97905.22
2022-11-12T14:00:22.494Z,97902.16
2022-11-12T14:02:58.158Z,97909.81
2022-11-12T14:05:35.988Z,97898.38
2022-11-12T14:08:23.526Z,97901.03
2022-11-12T14:11:09.127Z,97888.22
2022-11-12T14:14:00.440Z,97884.59
2022-11-12T14:17:01.645Z,97883.22
2022-11-12T14:19:37.397Z,97883.75
2022-11-12T14:22:22.848Z,97875.00
2022-11-12T14:25:01.944Z,97875.13
2022-11-12T14:27:28.605Z,97875.28
2022-11-12T14:30:14.847Z,97868.22
2022-11-12T14:32:45.140Z,97863.97
2022-11-12T14:35:26.155Z,97860.47
2022-11-12T14:37:59.632Z,97864.13
2022-11-12T14:40:33.228Z,97857.38
2022-11-12T14:43:00.087Z,97845.84
2022-11-12T14:45:31.212Z,97858.59
2022-11-12T14:48:01.369Z,97850.38
2022-11-12T14:50:37.406Z,97852.28
2022-11-12T14:53:18.212Z,97847.22
2022-11-12T14:55:52.387Z,97844.84
2022-11-12T14:58:21.916Z,97838.25
2022-11-12T15:00:52.667Z,97838.88
2022-11-12T15:03:24.279Z,97843.06
2022-11-12T15:06:10.531Z,97845.09
2022-11-12T15:08:39.971Z,97836.69
2022-11-12T15:11:21.989Z,97839.47
2022-11-12T15:13:51.109Z,97838.69
2022-11-12T15:16:29.757Z,97833.47
2022-11-12T15:19:20.877Z,97832.09
2022-11-12T15:21:59.012Z,97824.91
2022-11-12T15:24:33.479Z,97823.84
2022-11-12T15:27:22.915Z,97832.09
2022-11-12T15:29:49.756Z,97828.78
2022-11-12T15:32:16.446Z,97828.03
2022-11-12T15:34:46.224Z,97837.47
2022-11-12T15:37:18.940Z,97839.41
2022-11-12T15:39:51.991Z,97835.44
2022-11-12T15:42:40.228Z,97835.44
2022-11-12T15:45:18.632Z,97839.31
2022-11-12T15:47:45.612Z,97837.28
2022-11-12T15:50:22.842Z,97846.09
2022-11-12T15:52:50.599Z,97841.84
2022-11-12T15:55:18.331Z,97839.59
2022-11-12T15:57:49.644Z,97834.94
2022-11-12T16:00:22.286Z,97847.47
2022-11-12T16:03:10.813Z,97836.38
2022-11-12T16:05:37.708Z,97834.56
2022-11-12T16:08:04.976Z,97850.16
2022-11-12T16:10:31.966Z,97842.50
2022-11-12T16:13:00.796Z,97840.84
2022-11-12T16:15:27.713Z,97837.72
2022-11-12T16:18:00.088Z,97841.03
2022-11-12T16:20:32.321Z,97839.88
2022-11-12T16:22:59.429Z,97840.00
2022-11-12T16:25:34.412Z,97832.22
2022-11-12T16:28:01.715Z,97829.09
2022-11-12T16:30:32.165Z,97834.19
2022-11-12T16:33:00.527Z,97833.69
2022-11-12T16:35:29.790Z,97827.50
2022-11-12T16:37:56.827Z,97821.00
2022-11-12T16:40:28.074Z,97824.06
2022-11-12T16:42:54.889Z,97815.25
2022-11-12T16:45:25.219Z,97823.63
2022-11-12T16:47:56.069Z,97820.59
2022-11-12T16:50:26.448Z,97821.25
2022-11-12T16:52:53.883Z,97812.19
2022-11-12T16:55:21.672Z,97815.25
2022-11-12T16:57:48.489Z,97817.75
2022-11-12T17:00:19.199Z,97817.75
2022-11-12T17:02:49.478Z,97822.59
2022-11-12T17:05:23.004Z,97822.38
2022-11-12T17:07:54.315Z,97823.34
2022-11-12T17:10:23.874Z,97815.47
2022-11-12T17:12:51.760Z,97825.66
2022-11-12T17:15:18.758Z,97815.06
2022-11-12T17:17:45.579Z,97820.84
2022-11-12T17:20:12.534Z,97824.13
2022-11-12T17:22:39.447Z,97820.56
2022-11-12T17:25:08.134Z,97816.16
2022-11-12T17:27:34.952Z,97807.38
2022-11-12T17:30:02.503Z,97806.81
2022-11-12T17:32:29.305Z,97801.31
2022-11-12T17:34:56.839Z,97802.66
2022-11-12T17:37:23.683Z,97809.81
2022-11-12T17:39:50.472Z,97805.16
2022-11-12T17:42:17.256Z,97805.03
2022-11-12T17:44:46.102Z,97805.59
2022-11-12T17:47:12.892Z,97801.84
2022-11-12T17:49:39.748Z,97802.28
2022-11-12T17:52:06.546Z,97805.97
2022-11-12T17:54:34.425Z,97804.94
2022-11-12T17:57:01.204Z,97805.16
2022-11-12T17:59:28.036Z,97801.31
2022-11-12T18:01:54.864Z,97801.59
2022-11-12T18:04:23.835Z,97798.97
2022-11-12T18:06:51.042Z,97796.34
2022-11-12T18:09:17.926Z,97798.00
2022-11-12T18:11:48.651Z,97796.09
2022-11-12T18:14:16.013Z,97800.50
2022-11-12T18:16:43.118Z,97796.75
2022-11-12T18:19:11.244Z,97792.09
2022-11-12T18:21:40.529Z,97793.06
2022-11-12T18:24:16.443Z,97789.91
2022-11-12T18:26:44.238Z,97786.19
2022-11-12T18:29:12.590Z,97786.84
2022-11-12T18:31:40.505Z,97776.00
2022-11-12T18:34:13.675Z,97772.72
2022-11-12T18:36:40.499Z,97772.41
2022-11-12T18:39:07.576Z,97776.56
2022-11-12T18:41:34.417Z,97770.94
2022-11-12T18:44:01.531Z,97770.81
2022-11-12T18:46:28.354Z,97778.09
2022-11-12T18:48:55.153Z,97769.97
2022-11-12T18:51:22.011Z,97776.56
2022-11-12T18:53:48.850Z,97766.34
2022-11-12T18:56:19.072Z,97764.88
2022-11-12T18:58:46.603Z,97762.53
2022-11-12T19:01:20.544Z,97758.63
2022-11-12T19:03:48.398Z,97767.75
2022-11-12T19:06:16.591Z,97759.50
2022-11-12T19:08:43.440Z,97758.28
2022-11-12T19:11:13.277Z,97759.78
2022-11-12T19:13:41.032Z,97754.84
2022-11-12T19:16:15.409Z,97749.34
2022-11-12T19:18:43.034Z,97748.25
2022-11-12T19:21:16.446Z,97745.50
2022-11-12T19:23:43.425Z,97748.53
2022-11-12T19:26:16.963Z,97744.69
2022-11-12T19:28:44.994Z,97738.50
2022-11-12T19:31:16.572Z,97740.81
2022-11-12T19:33:43.949Z,97733.56
2022-11-12T19:36:17.684Z,97734.53
2022-11-12T19:38:44.816Z,97732.00
2022-11-12T19:41:19.784Z,97726.53
2022-11-12T19:43:47.579Z,97724.59
2022-11-12T19:46:15.212Z,97722.94
2022-11-12T19:48:43.798Z,97714.97
2022-11-12T19:51:11.925Z,97724.47
2022-11-12T19:53:46.499Z,97725.28
2022-11-12T19:56:17.039Z,97725.59
2022-11-12T19:58:48.742Z,97722.28
2022-11-12T20:01:18.309Z,97722.13
2022-11-12T20:03:45.704Z,97718.84
2022-11-12T20:06:17.708Z,97717.19
2022-11-12T20:08:44.926Z,97712.22
2022-11-12T20:11:12.746Z,97714.16
2022-11-12T20:13:40.137Z,97719.66
2022-11-12T20:16:16.765Z,97722.84
2022-11-12T20:18:50.827Z,97723.13
2022-11-12T20:21:17.997Z,97722.69
2022-11-12T20:23:45.729Z,97718.56
2022-11-12T20:26:15.284Z,97715.69
2022-11-12T20:28:43.527Z,97708.97
2022-11-12T20:31:16.956Z,97711.13
2022-11-12T20:33:43.758Z,97706.19
2022-11-12T20:36:16.744Z,97702.88
2022-11-12T20:38:45.016Z,97704.56
2022-11-12T20:41:18.662Z,97703.19
2022-11-12T20:43:45.663Z,97706.06
2022-11-12T20:46:13.475Z,97703.19
2022-11-12T20:48:43.586Z,97697.41
2022-11-12T20:51:23.743Z,97697.13
2022-11-12T20:53:59.264Z,97688.63
2022-11-12T20:56:29.674Z,97688.63
2022-11-12T20:58:57.668Z,97690.25
2022-11-12T21:01:26.461Z,97692.44
2022-11-12T21:03:53.449Z,97676.78
2022-11-12T21:06:23.653Z,97686.41
2022-11-12T21:08:50.769Z,97679.78
2022-11-12T21:11:20.588Z,97685.16
2022-11-12T21:13:47.499Z,97688.72
2022-11-12T21:16:15.203Z,97679.38
2022-11-12T21:18:42.307Z,97683.94
2022-11-12T21:21:12.786Z,97667.56
2022-11-12T21:23:43.598Z,97654.78
2022-11-12T21:26:19.972Z,97665.78
2022-11-12T21:28:55.436Z,97660.28
2022-11-12T21:31:26.104Z,97661.66
2022-11-12T21:34:00.210Z,97673.75
2022-11-12T21:36:28.296Z,97673.75
2022-11-12T21:38:55.319Z,97667.16
2022-11-12T21:41:27.853Z,97664.13
2022-11-12T21:43:55.263Z,97658.34
2022-11-12T21:46:31.060Z,97657.53
2022-11-12T21:48:58.167Z,97657.41
2022-11-12T21:51:30.831Z,97660.84
2022-11-12T21:54:03.976Z,97654.22
2022-11-12T21:56:33.349Z,97648.06
2022-11-12T21:59:01.261Z,97646.28
2022-11-12T22:01:31.651Z,97642.72
2022-11-12T22:03:59.718Z,97647.66
2022-11-12T22:06:30.071Z,97645.19
2022-11-12T22:08:58.099Z,97649.44
2022-11-12T22:11:27.181Z,97642.16
2022-11-12T22:13:54.110Z,97636.50
2022-11-12T22:16:27.260Z,97637.34
2022-11-12T22:18:56.986Z,97631.97
2022-11-12T22:21:29.598Z,97632.94
2022-11-12T22:23:57.852Z,97632.97
2022-11-12T22:26:27.844Z,97637.50
2022-11-12T22:28:58.872Z,97636.94
2022-11-12T22:31:31.594Z,97629.13
2022-11-12T22:34:00.348Z,97629.78
2022-11-12T22:36:30.284Z,97626.22
2022-11-12T22:38:57.497Z,97633.34
2022-11-12T22:41:27.360Z,97632.28
2022-11-12T22:43:57.147Z,97635.25
2022-11-12T22:46:27.680Z,97631.72
2022-11-12T22:48:55.461Z,97631.41
2022-11-12T22:51:26.153Z,97624.84
2022-11-12T22:53:55.603Z,97621.81
2022-11-12T22:56:23.294Z,97620.41
2022-11-12T22:58:51.215Z,97615.06
2022-11-12T23:01:28.306Z,97611.63
2022-11-12T23:03:58.939Z,97600.94
2022-11-12T23:06:27.431Z,97593.53
2022-11-12T23:08:56.101Z,97593.25
2022-11-12T23:11:26.036Z,97586.38
2022-11-12T23:13:54.560Z,97589.53
2022-11-12T23:16:25.532Z,97599.81
2022-11-12T23:18:54.844Z,97596.53
2022-11-12T23:21:25.534Z,97596.81
2022-11-12T23:23:52.967Z,97596.53
2022-11-12T23:26:23.023Z,97594.31
2022-11-12T23:28:50.870Z,97595.69
2022-11-12T23:31:25.229Z,97591.84
2022-11-12T23:33:54.809Z,97598.97
2022-11-12T23:36:24.115Z,97584.44
2022-11-12T23:38:51.364Z,97580.84
2022-11-12T23:41:25.625Z,97584.69
2022-11-12T23:43:54.169Z,97579.47
2022-11-12T23:46:21.749Z,97586.31
2022-11-12T23:48:48.776Z,97574.25
2022-11-12T23:51:22.727Z,97581.97
2022-11-12T23:53:50.040Z,97579.50
2022-11-12T23:56:19.671Z,97587.19
2022-11-12T23:58:47.321Z,97575.91
